Time;durP1;ratioP1;P1;durP2;ratioP2;P2;SDS_P1;SDS_P2;PMS_P1;PMS_P2;Temp;Humidity;BMP_temperature;BMP_pressure;BME280_temperature;BME280_humidity;BME280_pressure;Samples;Min_cycle;Max_cycle;Signal;HPM_P1;HPM_P2
2023/01/31 00:02:25;;;;;;;17.25;2.47;;;;;;;-142.75;100.00;78850.44;5014353;28;20029;-67
2023/01/31 00:04:50;;;;;;;;;;;;;;;-142.75;100.00;78866.19;5014516;28;20411;-67
2023/01/31 00:07:15;;;;;;;14.13;2.73;;;;;;;-142.75;100.00;78874.06;5014345;28;19913;-67
2023/01/31 00:09:40;;;;;;;;;;;;;;;-142.75;100.00;78874.06;5014534;28;20026;-66
2023/01/31 00:12:06;;;;;;;15.33;2.27;;;;;;;-142.75;100.00;78885.88;5014134;28;20402;-67
2023/01/31 00:14:31;;;;;;;9.82;1.88;;;;;;;-142.75;100.00;78878.00;5013821;28;20079;-67
2023/01/31 00:16:56;;;;;;;;;;;;;;;-142.75;100.00;78860.28;5014504;28;20026;-67
2023/01/31 00:19:22;;;;;;;11.97;1.70;;;;;;;-142.75;100.00;78870.13;5013994;28;19920;-67
2023/01/31 00:21:48;;;;;;;4.13;1.57;;;;;;;-142.75;100.00;78854.38;5014043;28;20081;-67
2023/01/31 00:24:14;;;;;;;13.07;2.20;;;;;;;-142.75;100.00;78850.44;5013730;28;20656;-67
2023/01/31 00:26:39;;;;;;;20.65;2.35;;;;;;;-142.75;100.00;78848.47;5013978;28;20038;-67
2023/01/31 00:29:04;;;;;;;;;;;;;;;-142.75;100.00;78842.56;5014282;28;20030;-67
2023/01/31 00:31:32;;;;;;;21.53;2.57;;;;;;;-142.75;100.00;78838.63;5013745;28;19920;-67
2023/01/31 00:33:59;;;;;;;16.70;2.27;;;;;;;-142.75;100.00;78834.69;5013481;28;20032;-67
2023/01/31 00:36:27;;;;;;;9.40;1.30;;;;;;;-142.75;100.00;78830.75;5013713;28;20129;-67
2023/01/31 00:38:55;;;;;;;12.50;2.07;;;;;;;-142.75;100.00;78832.72;5013461;28;20028;-67
2023/01/31 00:41:22;;;;;;;8.00;1.60;;;;;;;-142.75;100.00;78838.63;5012325;28;20091;-67
2023/01/31 00:43:49;;;;;;;8.73;1.40;;;;;;;-142.75;100.00;78844.53;5013251;28;20033;-67
2023/01/31 00:46:15;;;;;;;12.70;1.40;;;;;;;-142.75;100.00;78832.72;5013651;28;20026;-66
2023/01/31 00:48:40;;;;;;;9.25;1.58;;;;;;;-142.75;100.00;78814.97;5013431;28;20048;-66
2023/01/31 00:51:05;;;;;;;8.80;1.60;;;;;;;-142.75;100.00;78807.09;5013591;28;20026;-66
2023/01/31 00:53:31;;;;;;;;;;;;;;;-142.75;100.00;78818.91;5013582;28;20455;-67
2023/01/31 00:56:08;;;;;;;20.33;2.23;;;;;;;-142.75;100.00;78811.03;5013006;28;19913;-67
2023/01/31 00:58:33;;;;;;;13.70;1.97;;;;;;;-142.75;100.00;78813.00;5013311;28;20026;-66
2023/01/31 01:01:13;;;;;;;12.52;1.90;;;;;;;-142.75;100.00;78805.13;5013260;28;20044;-66
2023/01/31 01:03:40;;;;;;;5.87;1.40;;;;;;;-142.75;100.00;78799.22;5012847;28;20018;-67
2023/01/31 01:06:07;;;;;;;13.93;2.20;;;;;;;-142.75;100.00;78795.28;5013150;28;20025;-67
2023/01/31 01:08:34;;;;;;;8.07;1.87;;;;;;;-142.75;100.00;78799.22;5011859;28;20068;-67
2023/01/31 01:11:07;;;;;;;11.33;2.17;;;;;;;-142.75;100.00;78785.44;5012998;28;20034;-66
2023/01/31 01:13:33;;;;;;;15.97;1.77;;;;;;;-142.75;100.00;78783.47;5012682;28;20105;-67
2023/01/31 01:16:06;;;;;;;12.23;2.43;;;;;;;-142.75;100.00;78769.69;5013036;28;20030;-67
2023/01/31 01:18:34;;;;;;;14.87;2.27;;;;;;;-142.75;100.00;78769.69;5012902;28;20037;-67
2023/01/31 01:21:05;;;;;;;20.60;2.53;;;;;;;-142.75;100.00;78767.72;5013411;28;20108;-67
2023/01/31 01:23:30;;;;;;;16.10;2.40;;;;;;;-142.75;100.00;78763.78;5011352;28;20393;-67
2023/01/31 01:25:56;;;;;;;19.95;2.88;;;;;;;-142.75;100.00;78755.91;5011771;28;20018;-66
2023/01/31 01:28:21;;;;;;;14.77;2.85;;;;;;;-142.75;100.00;78748.03;5012993;28;20026;-66
2023/01/31 01:30:46;;;;;;;;;;;;;;;-142.75;100.00;78744.09;5013185;28;20077;-67
2023/01/31 01:33:11;;;;;;;14.50;2.43;;;;;;;-142.75;100.00;78738.16;5011027;28;20034;-66
2023/01/31 01:35:36;;;;;;;13.95;2.22;;;;;;;-142.75;100.00;78742.09;5012640;28;20404;-67
2023/01/31 01:38:02;;;;;;;13.02;2.28;;;;;;;-142.75;100.00;78740.13;5012573;28;20029;-67
2023/01/31 01:40:33;;;;;;;;;;;;;;;-142.75;100.00;78736.19;5012809;28;20085;-67
2023/01/31 01:42:59;;;;;;;13.60;2.47;;;;;;;-142.75;100.00;78748.03;5012517;28;19921;-67
2023/01/31 01:45:24;;;;;;;;;;;;;;;-142.75;100.00;78757.88;5012696;28;20029;-66
2023/01/31 01:47:58;;;;;;;14.13;2.80;;;;;;;-142.75;100.00;78736.19;5012450;28;19917;-67
2023/01/31 01:50:28;;;;;;;16.43;2.63;;;;;;;-142.75;100.00;78728.31;5012384;28;20025;-67
2023/01/31 01:52:58;;;;;;;13.30;2.47;;;;;;;-142.75;100.00;78720.44;5011163;28;20025;-67
2023/01/31 01:55:32;;;;;;;15.37;2.63;;;;;;;-142.75;100.00;78722.41;5011043;28;20025;-67
2023/01/31 01:58:06;;;;;;;17.83;2.77;;;;;;;-142.75;100.00;78724.38;5012333;28;20030;-67
2023/01/31 02:00:33;;;;;;;18.83;2.70;;;;;;;-142.75;100.00;78706.66;5010509;28;20087;-67
2023/01/31 02:03:03;;;;;;;12.60;2.30;;;;;;;-142.75;100.00;78704.69;5012032;28;20449;-67
2023/01/31 02:05:34;;;;;;;19.40;2.97;;;;;;;-142.75;100.00;78688.94;5011194;28;20104;-67
2023/01/31 02:08:02;;;;;;;17.03;3.07;;;;;;;-142.75;100.00;78686.97;5011634;28;20061;-65
2023/01/31 02:10:37;;;;;;;16.67;3.20;;;;;;;-142.75;100.00;78677.13;5011928;28;20037;-67
2023/01/31 02:13:03;;;;;;;12.33;3.07;;;;;;;-142.75;100.00;78665.28;5012030;28;20437;-67
2023/01/31 02:15:30;;;;;;;14.60;2.95;;;;;;;-142.75;100.00;78647.56;5011948;28;20026;-67
2023/01/31 02:17:56;;;;;;;16.63;2.70;;;;;;;-142.75;100.00;78647.56;5012190;28;20014;-66
2023/01/31 02:20:25;;;;;;;;;;;;;;;-142.75;100.00;78641.66;5012207;28;20396;-67
2023/01/31 02:23:25;;;;;;;20.53;3.03;;;;;;;-142.75;100.00;78639.69;5011585;28;19913;-64
2023/01/31 02:26:09;;;;;;;12.73;2.73;;;;;;;-142.75;100.00;78633.78;5011186;28;20493;-67
2023/01/31 02:29:23;;;;;;;18.27;3.13;;;;;;;-142.75;100.00;78635.75;5011579;28;20363;-67
2023/01/31 02:32:15;;;;;;;16.43;3.37;;;;;;;-142.75;100.00;78621.97;4932001;29;20468;-67
2023/01/31 02:34:50;;;;;;;14.37;3.10;;;;;;;-142.75;100.00;78625.91;5011304;28;20080;-67
2023/01/31 02:37:27;;;;;;;17.17;3.07;;;;;;;-142.75;100.00;78614.09;5011593;28;20112;-67
2023/01/31 02:40:10;;;;;;;15.57;3.00;;;;;;;-142.75;100.00;78635.75;5011041;28;20379;-67
2023/01/31 02:42:49;;;;;;;18.93;3.37;;;;;;;-142.75;100.00;78641.66;5010219;28;20025;-67
2023/01/31 02:45:26;;;;;;;12.67;2.90;;;;;;;-142.75;100.00;78627.88;5011442;28;20025;-67
2023/01/31 02:48:07;;;;;;;10.07;2.60;;;;;;;-142.75;100.00;78618.03;5010831;28;20021;-67
2023/01/31 02:50:46;;;;;;;19.07;3.10;;;;;;;-142.75;100.00;78621.97;5011319;28;20037;-67
2023/01/31 02:53:29;;;;;;;18.37;3.53;;;;;;;-142.75;100.00;78623.94;5008998;28;20482;-67
2023/01/31 02:56:18;;;;;;;15.07;3.37;;;;;;;-142.75;100.00;78616.06;5011195;28;20025;-67
2023/01/31 02:59:20;;;;;;;19.43;3.47;;;;;;;-142.75;100.00;78614.09;5011219;28;20634;-67
2023/01/31 03:01:53;;;;;;;19.80;2.83;;;;;;;-142.75;100.00;78614.09;5006221;28;20036;-67
2023/01/31 03:04:19;;;;;;;17.30;3.47;;;;;;;-142.75;100.00;78594.41;5010946;28;20072;-67
2023/01/31 03:06:53;;;;;;;;;;;;;;;-142.75;100.00;78590.47;5011541;28;20022;-67
2023/01/31 03:09:28;;;;;;;10.60;2.53;;;;;;;-142.75;100.00;78590.47;5011044;28;19967;-67
2023/01/31 03:12:05;;;;;;;11.73;3.20;;;;;;;-142.75;100.00;78582.59;5011078;28;20033;-67
2023/01/31 03:14:40;;;;;;;15.48;3.13;;;;;;;-142.75;100.00;78580.59;5010720;28;20493;-67
2023/01/31 03:20:15;;;;;;;17.03;3.27;;;;;;;-142.75;100.00;78551.06;5011022;28;20037;-67
2023/01/31 03:22:50;;;;;;;20.43;3.70;;;;;;;-142.75;100.00;78558.94;5009741;28;20034;-67
2023/01/31 03:25:20;;;;;;;21.07;3.83;;;;;;;-142.75;100.00;78558.94;5010847;28;20555;-67
2023/01/31 03:27:54;;;;;;;10.93;3.80;;;;;;;-142.75;100.00;78556.97;5010882;28;20485;-67
2023/01/31 03:30:29;;;;;;;23.90;3.40;;;;;;;-142.75;100.00;78547.13;5009494;28;20382;-67
2023/01/31 03:32:59;;;;;;;14.83;3.53;;;;;;;-142.75;100.00;78543.19;5010697;28;20561;-67
2023/01/31 03:35:28;;;;;;;17.13;3.37;;;;;;;-142.75;100.00;78537.28;5010654;28;20443;-67
2023/01/31 03:38:12;;;;;;;14.93;3.77;;;;;;;-142.75;100.00;78558.94;5010703;28;20034;-67
2023/01/31 03:40:45;;;;;;;24.03;4.07;;;;;;;-142.75;100.00;78551.06;5009264;28;20048;-65
2023/01/31 03:43:27;;;;;;;15.77;3.87;;;;;;;-142.75;100.00;78566.81;5010767;28;20061;-67
2023/01/31 03:46:04;;;;;;;20.50;3.43;;;;;;;-142.75;100.00;78545.16;5009735;28;20018;-67
2023/01/31 03:48:35;;;;;;;18.80;4.20;;;;;;;-142.75;100.00;78568.78;5010538;28;20038;-67
2023/01/31 03:51:05;;;;;;;18.03;3.87;;;;;;;-142.75;100.00;78551.06;5010715;28;20061;-67
2023/01/31 03:53:55;;;;;;;23.20;4.40;;;;;;;-142.75;100.00;78556.97;5010337;28;20026;-67
2023/01/31 03:56:36;;;;;;;27.17;3.97;;;;;;;-142.75;100.00;78562.88;5010136;28;20124;-67
2023/01/31 03:59:08;;;;;;;17.97;4.47;;;;;;;-142.75;100.00;78541.22;5010471;28;20061;-67
2023/01/31 04:01:38;;;;;;;16.33;4.07;;;;;;;-142.75;100.00;78555.00;5009319;28;20030;-67
2023/01/31 04:04:08;;;;;;;24.80;4.73;;;;;;;-142.75;100.00;78549.09;5010328;28;20026;-67
2023/01/31 04:06:33;;;;;;;24.60;4.23;;;;;;;-142.75;100.00;78553.03;5010664;28;20030;-67
2023/01/31 04:08:59;;;;;;;18.08;3.88;;;;;;;-142.75;100.00;78556.97;5010405;28;20038;-67
2023/01/31 04:11:25;;;;;;;24.08;4.38;;;;;;;-142.75;100.00;78558.94;5010437;28;20030;-67
2023/01/31 04:13:51;;;;;;;14.37;3.90;;;;;;;-142.75;100.00;78558.94;5010144;28;20026;-66
2023/01/31 04:16:16;;;;;;;26.73;5.35;;;;;;;-142.75;100.00;78539.25;5010427;28;20441;-67
2023/01/31 04:18:41;;;;;;;17.95;4.38;;;;;;;-142.75;100.00;78551.06;5010356;28;20022;-66
2023/01/31 04:21:07;;;;;;;;;;;;;;;-142.75;100.00;78519.56;5010811;28;20032;-67
2023/01/31 04:23:32;;;;;;;20.80;4.53;;;;;;;-142.75;100.00;78519.56;5010144;28;19925;-67
2023/01/31 04:25:57;;;;;;;18.63;3.95;;;;;;;-142.75;100.00;78515.63;5008956;28;20021;-67
2023/01/31 04:28:22;;;;;;;;;;;;;;;-142.75;100.00;78509.72;5010753;28;20026;-67
2023/01/31 04:30:53;;;;;;;26.37;4.60;;;;;;;-142.75;100.00;78509.72;5010226;28;19999;-67
2023/01/31 04:33:18;;;;;;;29.13;4.83;;;;;;;-142.75;100.00;78507.75;5013411;28;20091;-67
2023/01/31 04:35:43;;;;;;;34.45;4.40;;;;;;;-142.75;100.00;78507.75;5013803;28;20022;-66
2023/01/31 04:38:09;;;;;;;24.23;5.18;;;;;;;-142.75;100.00;78493.97;5013731;28;20037;-66
2023/01/31 04:40:34;;;;;;;;;;;;;;;-142.75;100.00;78486.06;5013943;28;20036;-67
2023/01/31 04:42:59;;;;;;;19.20;3.87;;;;;;;-142.75;100.00;78491.97;5013565;28;19913;-65
2023/01/31 04:45:24;;;;;;;;;;;;;;;-142.75;100.00;78482.13;5012621;28;20048;-67
2023/01/31 04:47:50;;;;;;;17.50;4.30;;;;;;;-142.75;100.00;78484.09;5013586;28;20391;-66
2023/01/31 04:50:15;;;;;;;16.58;4.18;;;;;;;-142.75;100.00;78476.22;5012118;28;20026;-67
2023/01/31 04:52:40;;;;;;;24.45;4.45;;;;;;;-142.75;100.00;78468.34;5013424;28;20053;-67
2023/01/31 04:55:06;;;;;;;21.65;4.65;;;;;;;-142.75;100.00;78472.28;5013063;28;20037;-65
2023/01/31 04:57:32;;;;;;;;;;;;;;;-142.75;100.00;78470.31;5013899;28;20022;-67
2023/01/31 04:59:57;;;;;;;16.17;3.47;;;;;;;-142.75;100.00;78464.41;5013280;28;20004;-67
2023/01/31 05:02:22;;;;;;;19.85;3.95;;;;;;;-142.75;100.00;78446.69;5013246;28;20405;-67
2023/01/31 05:04:47;;;;;;;;;;;;;;;-142.75;100.00;78446.69;5013452;28;20056;-67
2023/01/31 05:07:13;;;;;;;24.73;3.77;;;;;;;-142.75;100.00;78448.66;5013038;28;19992;-67
2023/01/31 05:09:41;;;;;;;13.57;3.70;;;;;;;-142.75;100.00;78444.72;5013122;28;20452;-67
2023/01/31 05:12:07;;;;;;;24.73;3.73;;;;;;;-142.75;100.00;78442.75;5013061;28;20034;-67
2023/01/31 05:14:32;;;;;;;22.92;4.10;;;;;;;-142.75;100.00;78432.91;5012872;28;20160;-67
2023/01/31 05:16:58;;;;;;;17.27;3.33;;;;;;;-142.75;100.00;78432.91;5013046;28;20022;-67
2023/01/31 05:19:23;;;;;;;;;;;;;;;-142.75;100.00;78428.97;5013411;28;20501;-67
2023/01/31 05:21:54;;;;;;;17.43;3.57;;;;;;;-142.75;100.00;78417.16;5012795;28;20098;-67
2023/01/31 05:24:23;;;;;;;17.77;4.27;;;;;;;-142.75;100.00;78417.16;5012517;28;20025;-67
2023/01/31 05:26:51;;;;;;;21.60;4.80;;;;;;;-142.75;100.00;78415.19;5012938;28;20026;-67
2023/01/31 05:29:17;;;;;;;15.60;3.50;;;;;;;-142.75;100.00;78417.16;5012742;28;20121;-67
2023/01/31 05:31:43;;;;;;;;;;;;;;;-142.75;100.00;78419.13;5013159;28;20397;-67
2023/01/31 05:34:10;;;;;;;21.67;3.63;;;;;;;-142.75;100.00;78413.22;5012399;28;19924;-67
2023/01/31 05:36:35;;;;;;;26.10;3.43;;;;;;;-142.75;100.00;78413.22;5012543;28;20025;-67
2023/01/31 05:39:01;;;;;;;;;;;;;;;-142.75;100.00;78401.38;5012819;28;20088;-68
2023/01/31 05:41:26;;;;;;;24.37;3.83;;;;;;;-142.75;100.00;78391.53;5012525;28;20332;-68
2023/01/31 05:43:51;;;;;;;16.05;3.38;;;;;;;-142.75;100.00;78385.63;5011284;28;20572;-67
2023/01/31 05:46:16;;;;;;;;;;;;;;;-142.75;100.00;78385.63;5012945;28;20022;-68
2023/01/31 05:48:42;;;;;;;17.07;3.30;;;;;;;-142.75;100.00;78389.56;5012394;28;19920;-66
2023/01/31 05:51:07;;;;;;;;;;;;;;;-142.75;100.00;78401.38;5012900;28;20053;-67
2023/01/31 05:53:32;;;;;;;22.20;3.90;;;;;;;-142.75;100.00;78397.44;5011892;28;20015;-67
2023/01/31 05:55:57;;;;;;;18.33;3.10;;;;;;;-142.75;100.00;78395.47;5012360;28;20034;-67
2023/01/31 05:58:23;;;;;;;;;;;;;;;-142.75;100.00;78391.53;5012599;28;20025;-67
2023/01/31 06:00:48;;;;;;;19.23;2.93;;;;;;;-142.75;100.00;78395.47;5012139;28;20380;-67
2023/01/31 06:03:13;;;;;;;27.80;3.72;;;;;;;-142.75;100.00;78409.28;5012116;28;20037;-67
2023/01/31 06:05:39;;;;;;;20.33;3.42;;;;;;;-142.75;100.00;78397.44;5010577;28;20028;-67
2023/01/31 06:08:04;;;;;;;;;;;;;;;-142.75;100.00;78381.69;5012425;28;20504;-67
2023/01/31 06:10:30;;;;;;;18.37;4.07;;;;;;;-142.75;100.00;78381.69;5011923;28;20284;-66
2023/01/31 06:12:55;;;;;;;18.80;3.92;;;;;;;-142.75;100.00;78369.88;5011781;28;20053;-66
2023/01/31 06:15:20;;;;;;;;;;;;;;;-142.75;100.00;78379.72;5012312;28;20037;-67
2023/01/31 06:17:46;;;;;;;21.43;3.47;;;;;;;-142.75;100.00;78389.56;5011916;28;20022;-67
2023/01/31 06:20:11;;;;;;;12.25;3.22;;;;;;;-142.75;100.00;78389.56;5011830;28;20438;-67
2023/01/31 06:22:36;;;;;;;24.35;3.80;;;;;;;-142.75;100.00;78387.59;5011653;28;20096;-66
2023/01/31 06:25:02;;;;;;;10.77;2.80;;;;;;;-142.75;100.00;78379.72;5011608;28;20456;-67
2023/01/31 06:27:30;;;;;;;;;;;;;;;-142.75;100.00;78375.78;5010870;28;20489;-67
2023/01/31 06:29:55;;;;;;;;;;;;;;;-142.75;100.00;78363.97;5012125;28;19914;-67
2023/01/31 06:32:20;;;;;;;19.33;3.33;;;;;;;-142.75;100.00;78363.97;5011714;28;19983;-67
2023/01/31 06:34:45;;;;;;;21.52;3.85;;;;;;;-142.75;100.00;78371.84;5011305;28;20045;-68
2023/01/31 06:37:10;;;;;;;;;;;;;;;-142.75;100.00;78363.97;5011915;28;20101;-67
2023/01/31 06:39:36;;;;;;;12.70;3.07;;;;;;;-142.75;100.00;78358.06;5011363;28;19917;-67
2023/01/31 06:42:01;;;;;;;17.40;3.45;;;;;;;-142.75;100.00;78371.84;5011585;28;20040;-67
2023/01/31 06:44:27;;;;;;;;;;;;;;;-142.75;100.00;78348.22;5011495;28;20040;-67
2023/01/31 06:46:52;;;;;;;19.20;3.67;;;;;;;-142.75;100.00;78354.13;5011462;28;20367;-67
2023/01/31 06:49:17;;;;;;;18.13;3.28;;;;;;;-142.75;100.00;78338.38;5011283;28;20034;-67
2023/01/31 06:51:42;;;;;;;;;;;;;;;-142.75;100.00;78334.44;5011767;28;20473;-67
2023/01/31 06:54:08;;;;;;;21.20;4.03;;;;;;;-142.75;100.00;78318.69;5010463;28;19971;-67
2023/01/31 06:56:33;;;;;;;20.35;3.13;;;;;;;-142.75;100.00;78322.63;5011244;28;20073;-67
2023/01/31 06:58:58;;;;;;;;;;;;;;;-142.75;100.00;78320.66;5010308;28;20066;-67
2023/01/31 07:01:25;;;;;;;12.30;3.00;;;;;;;-142.75;100.00;78328.53;5011130;28;19920;-67
2023/01/31 07:03:50;;;;;;;16.67;2.60;;;;;;;-142.75;100.00;78324.59;5010887;28;20029;-67
2023/01/31 07:06:18;;;;;;;;;;;;;;;-142.75;100.00;78316.72;5011487;28;20037;-67
2023/01/31 07:08:44;;;;;;;13.23;2.63;;;;;;;-142.75;100.00;78314.75;5011023;28;20544;-67
2023/01/31 07:11:09;;;;;;;;;;;;;;;-142.75;100.00;78300.97;5010275;28;20121;-67
2023/01/31 07:13:34;;;;;;;15.93;2.90;;;;;;;-142.75;100.00;78291.09;5011252;28;19918;-67
2023/01/31 07:16:00;;;;;;;14.10;2.55;;;;;;;-142.75;100.00;78291.09;5011245;28;20489;-67
2023/01/31 07:18:25;;;;;;;10.98;3.00;;;;;;;-142.75;100.00;78295.06;5011017;28;20116;-67
2023/01/31 07:20:50;;;;;;;;;;;;;;;-142.75;100.00;78291.09;5011302;28;20396;-67
2023/01/31 07:23:15;;;;;;;15.93;2.37;;;;;;;-142.75;100.00;78302.94;5010723;28;19920;-66
2023/01/31 07:25:41;;;;;;;;;;;;;;;-142.75;100.00;78285.19;5011443;28;20065;-67
2023/01/31 07:28:06;;;;;;;28.43;2.90;;;;;;;-142.75;100.00;78291.09;5010758;28;19914;-67
2023/01/31 07:30:31;;;;;;;11.75;2.42;;;;;;;-142.75;100.00;78283.22;5009560;28;20022;-67
2023/01/31 07:32:56;;;;;;;;;;;;;;;-142.75;100.00;78279.28;5011000;28;20108;-67
2023/01/31 07:35:22;;;;;;;16.07;2.23;;;;;;;-142.75;100.00;78291.09;5010824;28;19960;-67
2023/01/31 07:37:50;;;;;;;16.27;2.13;;;;;;;-142.75;100.00;78283.22;5010771;28;20084;-67
2023/01/31 07:40:16;;;;;;;6.27;1.60;;;;;;;-142.75;100.00;78297.00;5010624;28;20433;-67
2023/01/31 07:42:41;;;;;;;;;;;;;;;-142.75;100.00;78279.28;5011126;28;20033;-67
2023/01/31 07:45:10;;;;;;;10.47;2.13;;;;;;;-142.75;100.00;78283.22;5010512;28;19917;-67
2023/01/31 07:47:35;;;;;;;11.60;2.50;;;;;;;-142.75;100.00;78285.19;5010640;28;20033;-66
2023/01/31 07:50:00;;;;;;;;;;;;;;;-142.75;100.00;78267.47;5010942;28;20105;-64
2023/01/31 07:52:26;;;;;;;17.43;2.53;;;;;;;-142.75;100.00;78257.63;5010583;28;19918;-67
2023/01/31 07:54:51;;;;;;;;;;;;;;;-142.75;100.00;78235.97;5010778;28;20026;-67
2023/01/31 07:57:16;;;;;;;16.87;2.53;;;;;;;-142.75;100.00;78251.72;5010540;28;19913;-67
2023/01/31 07:59:45;;;;;;;13.02;2.88;;;;;;;-142.75;100.00;78255.66;5010570;28;20051;-67
2023/01/31 08:04:55;;;;;;;15.37;2.53;;;;;;;-142.75;100.00;78251.72;5009765;28;20079;-68
2023/01/31 08:07:21;;;;;;;;;;;;;;;-142.75;100.00;78239.91;5013314;28;20030;-67
2023/01/31 08:09:48;;;;;;;18.50;3.03;;;;;;;-142.75;100.00;78259.59;5014291;28;20373;-67
2023/01/31 08:12:14;;;;;;;11.50;2.47;;;;;;;-142.75;100.00;78259.59;5014220;28;20029;-67
2023/01/31 08:14:39;;;;;;;21.30;3.33;;;;;;;-142.75;100.00;78271.41;5012596;28;20489;-67
2023/01/31 08:17:07;;;;;;;;;;;;;;;-142.75;100.00;78245.81;5014437;28;20076;-67
2023/01/31 08:19:33;;;;;;;13.15;2.65;;;;;;;-142.75;100.00;78249.75;5014167;28;19917;-65
2023/01/31 08:21:58;;;;;;;15.00;3.37;;;;;;;-142.75;100.00;78261.56;5014043;28;20474;-68
2023/01/31 08:24:23;;;;;;;;;;;;;;;-142.75;100.00;78235.97;5014259;28;20029;-68
2023/01/31 08:26:49;;;;;;;17.93;2.70;;;;;;;-142.75;100.00;78255.66;5013911;28;19917;-67
2023/01/31 08:29:14;;;;;;;15.50;2.95;;;;;;;-142.75;100.00;78259.59;5013914;28;20108;-67
2023/01/31 08:31:41;;;;;;;14.02;2.30;;;;;;;-142.75;100.00;78253.69;5013832;28;20036;-67
2023/01/31 08:34:06;;;;;;;13.87;2.53;;;;;;;-142.75;100.00;78251.72;5013520;28;20030;-68
2023/01/31 08:36:32;;;;;;;;;;;;;;;-142.75;100.00;78247.78;5013001;28;20033;-67
2023/01/31 08:38:57;;;;;;;8.87;3.03;;;;;;;-142.75;100.00;78235.97;5014146;28;19917;-67
2023/01/31 08:41:23;;;;;;;;;;;;;;;-142.75;100.00;78226.13;5014206;28;20388;-68
2023/01/31 08:43:49;;;;;;;23.57;3.00;;;;;;;-142.75;100.00;78226.13;5013439;28;20460;-68
2023/01/31 08:46:15;;;;;;;;;;;;;;;-142.75;100.00;78235.97;5014017;28;20104;-67
2023/01/31 08:48:41;;;;;;;13.63;2.40;;;;;;;-142.75;100.00;78220.22;5013523;28;20372;-67
2023/01/31 08:51:09;;;;;;;17.90;2.83;;;;;;;-142.75;100.00;78204.47;5013588;28;20113;-67
2023/01/31 08:53:39;;;;;;;11.73;2.33;;;;;;;-142.75;100.00;78218.25;5011987;28;20057;-67
2023/01/31 08:56:06;;;;;;;22.10;2.63;;;;;;;-142.75;100.00;78212.34;5013500;28;20026;-67
2023/01/31 08:58:33;;;;;;;18.37;3.03;;;;;;;-142.75;100.00;78192.66;5013265;28;20076;-67
2023/01/31 09:01:08;;;;;;;16.23;3.20;;;;;;;-142.75;100.00;78188.72;5013224;28;20029;-67
2023/01/31 09:03:33;;;;;;;13.70;2.87;;;;;;;-142.75;100.00;78180.81;5011830;28;20109;-67
2023/01/31 09:05:59;;;;;;;;;;;;;;;-142.75;100.00;78188.72;5013752;28;20053;-67
2023/01/31 09:08:25;;;;;;;9.67;2.13;;;;;;;-142.75;100.00;78192.66;5013164;28;19967;-67
2023/01/31 09:10:51;;;;;;;;;;;;;;;-142.75;100.00;78176.88;5013574;28;20054;-67
2023/01/31 09:13:17;;;;;;;11.43;2.33;;;;;;;-142.75;100.00;78190.69;5011552;28;19967;-66
2023/01/31 09:15:42;;;;;;;;;;;;;;;-142.75;100.00;78182.81;5013380;28;20034;-67
2023/01/31 09:18:07;;;;;;;16.50;3.13;;;;;;;-142.75;100.00;78176.88;5012839;28;19992;-68
2023/01/31 09:20:32;;;;;;;16.80;2.85;;;;;;;-142.75;100.00;78174.91;5011681;28;20037;-66
2023/01/31 09:22:58;;;;;;;;;;;;;;;-142.75;100.00;78161.13;5013250;28;20056;-66
2023/01/31 09:25:23;;;;;;;16.23;2.60;;;;;;;-142.75;100.00;78163.09;5012713;28;20396;-67
2023/01/31 09:27:50;;;;;;;;;;;;;;;-142.75;100.00;78167.03;5013358;28;20060;-66
2023/01/31 09:30:16;;;;;;;13.75;2.55;;;;;;;-142.75;100.00;78157.19;5012663;28;19917;-68
2023/01/31 09:32:43;;;;;;;10.27;1.50;;;;;;;-142.75;100.00;78145.38;5012828;28;20507;-67
2023/01/31 09:35:08;;;;;;;15.80;2.07;;;;;;;-142.75;100.00;78131.59;5012296;28;20026;-67
2023/01/31 09:37:33;;;;;;;;;;;;;;;-142.75;100.00;78090.25;5013172;28;20030;-66
2023/01/31 09:39:59;;;;;;;23.10;2.87;;;;;;;-142.75;100.00;78062.69;5012486;28;19944;-67
2023/01/31 09:42:30;;;;;;;22.17;2.40;;;;;;;-142.75;100.00;78060.72;5012550;28;20531;-67
2023/01/31 09:45:02;;;;;;;18.47;3.30;;;;;;;-142.75;100.00;78037.06;5012248;28;20033;-68
2023/01/31 09:47:40;;;;;;;20.03;2.83;;;;;;;-142.75;100.00;78039.03;5012739;28;20404;-67
2023/01/31 09:50:28;;;;;;;18.93;2.40;;;;;;;-142.75;100.00;78050.84;5012181;28;20025;-66
2023/01/31 09:52:54;;;;;;;24.67;2.97;;;;;;;-142.75;100.00;78060.72;5001633;28;20040;-66
2023/01/31 09:55:26;;;;;;;;;;;;;;;-142.75;100.00;78066.63;5012645;28;20033;-68
2023/01/31 09:58:19;;;;;;;21.23;2.57;;;;;;;-142.75;100.00;78066.63;5012516;28;19914;-68
2023/01/31 10:01:01;;;;;;;18.70;2.80;;;;;;;-142.75;100.00;78076.47;5011190;28;20030;-68
2023/01/31 10:03:36;;;;;;;14.50;2.33;;;;;;;-142.75;100.00;78070.56;5011093;28;20033;-68
2023/01/31 10:06:01;;;;;;;23.37;3.57;;;;;;;-142.75;100.00;78066.63;5012083;28;20038;-67
2023/01/31 10:08:29;;;;;;;;;;;;;;;-142.75;100.00;78074.50;5012514;28;20095;-67
2023/01/31 10:10:59;;;;;;;13.77;2.63;;;;;;;-142.75;100.00;78082.38;5012018;28;19913;-68
2023/01/31 10:13:37;;;;;;;11.43;1.97;;;;;;;-142.75;100.00;78086.31;5011732;28;20511;-66
2023/01/31 10:16:24;;;;;;;12.47;2.20;;;;;;;-142.75;100.00;78066.63;5011950;28;20034;-66
2023/01/31 10:18:58;;;;;;;13.07;1.70;;;;;;;-142.75;100.00;78086.31;5010630;28;20095;-67
2023/01/31 10:21:57;;;;;;;12.70;2.80;;;;;;;-142.75;100.00;78066.63;5011948;28;20033;-68
2023/01/31 10:24:27;;;;;;;14.17;2.77;;;;;;;-142.75;100.00;78044.94;5011458;28;20671;-66
2023/01/31 10:26:59;;;;;;;14.97;1.87;;;;;;;-142.75;100.00;78033.13;5011785;28;20030;-67
2023/01/31 10:29:31;;;;;;;18.73;3.77;;;;;;;-142.75;100.00;78005.56;5010989;28;20049;-67
2023/01/31 10:32:02;;;;;;;16.17;2.53;;;;;;;-142.75;100.00;77991.78;5011800;28;20029;-68
2023/01/31 10:34:33;;;;;;;15.60;2.83;;;;;;;-142.75;100.00;78007.53;5009975;28;20026;-67
2023/01/31 10:37:06;;;;;;;11.63;2.40;;;;;;;-142.75;100.00;78019.34;5011637;28;20026;-67
2023/01/31 10:39:49;;;;;;;16.67;2.57;;;;;;;-142.75;100.00;78019.34;5011293;28;20108;-66
2023/01/31 10:42:32;;;;;;;18.03;3.03;;;;;;;-142.75;100.00;78023.28;5011525;28;20453;-67
2023/01/31 10:45:09;;;;;;;14.97;2.40;;;;;;;-142.75;100.00;78015.41;5011200;28;20036;-66
2023/01/31 10:47:39;;;;;;;12.97;2.70;;;;;;;-142.75;100.00;78007.53;5010473;28;20053;-66
2023/01/31 10:50:15;;;;;;;17.00;2.30;;;;;;;-142.75;100.00;78005.56;5010154;28;20113;-67
2023/01/31 10:53:02;;;;;;;13.10;2.67;;;;;;;-142.75;100.00;78009.50;5010792;28;20034;-67
2023/01/31 10:55:45;;;;;;;14.88;2.30;;;;;;;-142.75;100.00;78013.44;5011137;28;20374;-66
2023/01/31 10:58:16;;;;;;;20.43;2.73;;;;;;;-142.75;100.00;78007.53;5011253;28;20021;-67
2023/01/31 11:00:42;;;;;;;22.83;3.17;;;;;;;-142.75;100.00;77997.69;5011054;28;20028;-67
2023/01/31 11:03:10;;;;;;;;;;;;;;;-142.75;100.00;77995.72;5011555;28;20014;-67
2023/01/31 11:05:42;;;;;;;16.00;2.97;;;;;;;-142.75;100.00;77999.66;5011115;28;20335;-67
2023/01/31 11:08:45;;;;;;;18.53;2.23;;;;;;;-142.75;100.00;78003.59;5010649;28;20053;-68
2023/01/31 11:11:13;;;;;;;14.93;2.30;;;;;;;-142.75;100.00;78017.38;5010824;28;20061;-67
2023/01/31 11:13:39;;;;;;;14.50;1.77;;;;;;;-142.75;100.00;78009.50;5010815;28;20018;-67
2023/01/31 11:16:09;;;;;;;;;;;;;;;-142.75;100.00;78017.38;5011403;28;20022;-67
2023/01/31 11:18:48;;;;;;;18.63;1.87;;;;;;;-142.75;100.00;77999.66;5010941;28;19913;-66
2023/01/31 11:21:22;;;;;;;14.93;2.73;;;;;;;-142.75;100.00;78001.63;5010546;28;20041;-67
2023/01/31 11:23:50;;;;;;;10.87;1.90;;;;;;;-142.75;100.00;78003.59;5009534;28;20045;-67
2023/01/31 11:26:34;;;;;;;10.17;1.60;;;;;;;-142.75;100.00;77987.84;5011011;28;20034;-67
2023/01/31 11:29:01;;;;;;;8.47;2.10;;;;;;;-142.75;100.00;77993.75;5010634;28;20108;-66
2023/01/31 11:31:40;;;;;;;12.90;2.07;;;;;;;-142.75;100.00;77981.94;5010983;28;20417;-67
2023/01/31 11:34:24;;;;;;;18.63;2.10;;;;;;;-142.75;100.00;77985.88;5009494;28;20072;-66